sensor_id;sensor_type;location;lat;lon;timestamp;P1;durP1;ratioP1;P2;durP2;ratioP2
58360;SDS011;44164;44.954;10.068;2022-09-01T00:00:39;3.08;;;1.75;;
58360;SDS011;44164;44.954;10.068;2022-09-01T00:03:07;2.72;;;1.90;;
58360;SDS011;44164;44.954;10.068;2022-09-01T00:05:37;2.28;;;1.85;;
58360;SDS011;44164;44.954;10.068;2022-09-01T00:08:03;2.55;;;1.75;;
58360;SDS011;44164;44.954;10.068;2022-09-01T00:10:30;2.87;;;1.77;;
58360;SDS011;44164;44.954;10.068;2022-09-01T00:12:56;2.72;;;1.80;;
58360;SDS011;44164;44.954;10.068;2022-09-01T00:15:22;2.80;;;1.77;;
58360;SDS011;44164;44.954;10.068;2022-09-01T00:17:48;2.92;;;2.20;;
58360;SDS011;44164;44.954;10.068;2022-09-01T00:20:15;2.50;;;1.90;;
58360;SDS011;44164;44.954;10.068;2022-09-01T00:22:41;2.83;;;2.10;;
58360;SDS011;44164;44.954;10.068;2022-09-01T00:25:07;3.33;;;1.90;;
58360;SDS011;44164;44.954;10.068;2022-09-01T00:27:34;3.10;;;1.98;;
58360;SDS011;44164;44.954;10.068;2022-09-01T00:30:01;2.43;;;1.97;;
58360;SDS011;44164;44.954;10.068;2022-09-01T00:32:28;2.30;;;1.90;;
58360;SDS011;44164;44.954;10.068;2022-09-01T00:34:54;2.05;;;1.73;;
58360;SDS011;44164;44.954;10.068;2022-09-01T00:37:20;4.03;;;1.90;;
58360;SDS011;44164;44.954;10.068;2022-09-01T00:39:46;3.85;;;2.00;;
58360;SDS011;44164;44.954;10.068;2022-09-01T00:42:13;5.18;;;2.10;;
58360;SDS011;44164;44.954;10.068;2022-09-01T00:44:39;2.30;;;1.65;;
58360;SDS011;44164;44.954;10.068;2022-09-01T00:47:05;3.13;;;1.90;;
58360;SDS011;44164;44.954;10.068;2022-09-01T00:49:41;3.70;;;2.22;;
58360;SDS011;44164;44.954;10.068;2022-09-01T00:52:13;2.40;;;1.63;;
58360;SDS011;44164;44.954;10.068;2022-09-01T00:54:43;2.95;;;2.00;;
58360;SDS011;44164;44.954;10.068;2022-09-01T00:57:11;2.33;;;1.63;;
58360;SDS011;44164;44.954;10.068;2022-09-01T00:59:38;2.35;;;1.90;;
58360;SDS011;44164;44.954;10.068;2022-09-01T01:02:08;2.42;;;1.80;;
58360;SDS011;44164;44.954;10.068;2022-09-01T01:04:35;2.40;;;1.88;;
58360;SDS011;44164;44.954;10.068;2022-09-01T01:07:02;2.50;;;2.08;;
58360;SDS011;44164;44.954;10.068;2022-09-01T01:09:29;2.65;;;1.98;;
58360;SDS011;44164;44.954;10.068;2022-09-01T01:11:59;2.30;;;1.77;;
58360;SDS011;44164;44.954;10.068;2022-09-01T01:14:26;2.40;;;2.08;;
58360;SDS011;44164;44.954;10.068;2022-09-01T01:16:57;2.35;;;1.80;;
58360;SDS011;44164;44.954;10.068;2022-09-01T01:22:40;3.55;;;1.67;;
58360;SDS011;44164;44.954;10.068;2022-09-01T01:30:39;2.97;;;2.20;;
58360;SDS011;44164;44.954;10.068;2022-09-01T01:33:06;3.55;;;2.38;;
58360;SDS011;44164;44.954;10.068;2022-09-01T01:35:33;2.13;;;1.60;;
58360;SDS011;44164;44.954;10.068;2022-09-01T01:38:00;2.63;;;2.03;;
58360;SDS011;44164;44.954;10.068;2022-09-01T01:40:27;3.00;;;2.07;;
58360;SDS011;44164;44.954;10.068;2022-09-01T01:42:55;2.65;;;1.80;;
58360;SDS011;44164;44.954;10.068;2022-09-01T01:45:24;2.55;;;2.00;;
58360;SDS011;44164;44.954;10.068;2022-09-01T01:47:51;2.22;;;1.80;;
58360;SDS011;44164;44.954;10.068;2022-09-01T01:50:21;2.10;;;1.80;;
58360;SDS011;44164;44.954;10.068;2022-09-01T01:52:58;3.67;;;2.25;;
58360;SDS011;44164;44.954;10.068;2022-09-01T01:55:28;2.70;;;1.80;;
58360;SDS011;44164;44.954;10.068;2022-09-01T01:57:57;2.95;;;2.08;;
58360;SDS011;44164;44.954;10.068;2022-09-01T02:00:27;2.90;;;2.25;;
58360;SDS011;44164;44.954;10.068;2022-09-01T02:02:58;3.08;;;2.00;;
58360;SDS011;44164;44.954;10.068;2022-09-01T02:05:26;2.35;;;1.92;;
58360;SDS011;44164;44.954;10.068;2022-09-01T02:07:58;2.70;;;2.00;;
58360;SDS011;44164;44.954;10.068;2022-09-01T02:10:31;2.63;;;1.90;;
58360;SDS011;44164;44.954;10.068;2022-09-01T02:13:02;2.90;;;2.22;;
58360;SDS011;44164;44.954;10.068;2022-09-01T02:15:31;2.42;;;1.90;;
58360;SDS011;44164;44.954;10.068;2022-09-01T02:18:08;2.73;;;2.00;;
58360;SDS011;44164;44.954;10.068;2022-09-01T02:20:39;2.50;;;2.03;;
58360;SDS011;44164;44.954;10.068;2022-09-01T02:23:06;2.47;;;1.80;;
58360;SDS011;44164;44.954;10.068;2022-09-01T02:25:39;2.60;;;2.13;;
58360;SDS011;44164;44.954;10.068;2022-09-01T02:28:10;2.95;;;1.77;;
58360;SDS011;44164;44.954;10.068;2022-09-01T02:30:41;3.53;;;1.90;;
58360;SDS011;44164;44.954;10.068;2022-09-01T02:33:11;2.70;;;1.92;;
58360;SDS011;44164;44.954;10.068;2022-09-01T02:35:48;3.08;;;2.15;;
58360;SDS011;44164;44.954;10.068;2022-09-01T02:38:16;3.22;;;2.50;;
58360;SDS011;44164;44.954;10.068;2022-09-01T02:40:44;2.90;;;2.28;;
58360;SDS011;44164;44.954;10.068;2022-09-01T02:43:12;2.63;;;2.15;;
58360;SDS011;44164;44.954;10.068;2022-09-01T02:45:46;2.30;;;1.95;;
58360;SDS011;44164;44.954;10.068;2022-09-01T02:48:21;3.28;;;1.98;;
58360;SDS011;44164;44.954;10.068;2022-09-01T02:50:51;2.72;;;2.30;;
58360;SDS011;44164;44.954;10.068;2022-09-01T02:53:18;3.47;;;2.70;;
58360;SDS011;44164;44.954;10.068;2022-09-01T02:55:46;2.28;;;1.90;;
58360;SDS011;44164;44.954;10.068;2022-09-01T02:58:12;3.35;;;2.42;;
58360;SDS011;44164;44.954;10.068;2022-09-01T03:00:44;2.92;;;2.10;;
58360;SDS011;44164;44.954;10.068;2022-09-01T03:03:11;3.65;;;2.42;;
58360;SDS011;44164;44.954;10.068;2022-09-01T03:05:38;3.33;;;2.08;;
58360;SDS011;44164;44.954;10.068;2022-09-01T03:08:05;2.67;;;2.10;;
58360;SDS011;44164;44.954;10.068;2022-09-01T03:10:36;2.97;;;1.98;;
58360;SDS011;44164;44.954;10.068;2022-09-01T03:13:08;3.00;;;2.17;;
58360;SDS011;44164;44.954;10.068;2022-09-01T03:15:42;2.72;;;1.90;;
58360;SDS011;44164;44.954;10.068;2022-09-01T03:18:10;3.75;;;2.22;;
58360;SDS011;44164;44.954;10.068;2022-09-01T03:20:38;2.33;;;2.05;;
58360;SDS011;44164;44.954;10.068;2022-09-01T03:23:08;3.20;;;2.00;;
58360;SDS011;44164;44.954;10.068;2022-09-01T03:25:36;3.15;;;1.95;;
58360;SDS011;44164;44.954;10.068;2022-09-01T03:28:04;2.67;;;2.10;;
58360;SDS011;44164;44.954;10.068;2022-09-01T03:30:32;3.65;;;2.15;;
58360;SDS011;44164;44.954;10.068;2022-09-01T03:33:01;3.30;;;2.47;;
58360;SDS011;44164;44.954;10.068;2022-09-01T03:35:28;3.53;;;2.22;;
58360;SDS011;44164;44.954;10.068;2022-09-01T03:37:58;2.42;;;1.80;;
58360;SDS011;44164;44.954;10.068;2022-09-01T03:40:26;3.92;;;2.05;;
58360;SDS011;44164;44.954;10.068;2022-09-01T03:42:58;3.13;;;2.25;;
58360;SDS011;44164;44.954;10.068;2022-09-01T03:45:25;2.42;;;1.65;;
58360;SDS011;44164;44.954;10.068;2022-09-01T03:47:52;3.58;;;2.60;;
58360;SDS011;44164;44.954;10.068;2022-09-01T03:50:20;3.15;;;1.90;;
58360;SDS011;44164;44.954;10.068;2022-09-01T03:52:49;4.25;;;2.45;;
58360;SDS011;44164;44.954;10.068;2022-09-01T03:55:23;3.38;;;2.10;;
58360;SDS011;44164;44.954;10.068;2022-09-01T03:57:56;4.38;;;2.13;;
58360;SDS011;44164;44.954;10.068;2022-09-01T04:00:26;4.45;;;2.53;;
58360;SDS011;44164;44.954;10.068;2022-09-01T04:02:57;3.38;;;2.15;;
58360;SDS011;44164;44.954;10.068;2022-09-01T04:05:26;3.45;;;2.17;;
58360;SDS011;44164;44.954;10.068;2022-09-01T04:07:56;2.10;;;1.77;;
58360;SDS011;44164;44.954;10.068;2022-09-01T04:12:49;2.38;;;1.90;;
58360;SDS011;44164;44.954;10.068;2022-09-01T04:15:16;3.45;;;2.25;;
58360;SDS011;44164;44.954;10.068;2022-09-01T04:17:44;3.78;;;1.90;;
58360;SDS011;44164;44.954;10.068;2022-09-01T04:20:29;2.53;;;2.05;;
58360;SDS011;44164;44.954;10.068;2022-09-01T04:23:05;3.65;;;1.90;;
58360;SDS011;44164;44.954;10.068;2022-09-01T04:25:36;3.97;;;1.80;;
58360;SDS011;44164;44.954;10.068;2022-09-01T04:30:38;3.38;;;1.75;;
58360;SDS011;44164;44.954;10.068;2022-09-01T04:33:08;4.72;;;1.98;;
58360;SDS011;44164;44.954;10.068;2022-09-01T04:35:38;3.10;;;2.20;;
58360;SDS011;44164;44.954;10.068;2022-09-01T04:38:05;2.95;;;1.77;;
58360;SDS011;44164;44.954;10.068;2022-09-01T04:40:39;2.80;;;2.10;;
58360;SDS011;44164;44.954;10.068;2022-09-01T04:43:06;4.00;;;2.30;;
58360;SDS011;44164;44.954;10.068;2022-09-01T04:45:36;4.68;;;2.50;;
58360;SDS011;44164;44.954;10.068;2022-09-01T04:48:03;3.25;;;1.90;;
58360;SDS011;44164;44.954;10.068;2022-09-01T04:50:30;3.20;;;2.10;;
58360;SDS011;44164;44.954;10.068;2022-09-01T04:53:15;3.33;;;1.80;;
58360;SDS011;44164;44.954;10.068;2022-09-01T04:55:52;3.08;;;2.10;;
58360;SDS011;44164;44.954;10.068;2022-09-01T04:58:20;4.15;;;2.35;;
58360;SDS011;44164;44.954;10.068;2022-09-01T05:00:48;2.95;;;1.90;;
58360;SDS011;44164;44.954;10.068;2022-09-01T05:03:17;4.30;;;2.33;;
58360;SDS011;44164;44.954;10.068;2022-09-01T05:06:15;2.80;;;2.05;;
58360;SDS011;44164;44.954;10.068;2022-09-01T05:08:47;2.53;;;1.75;;
58360;SDS011;44164;44.954;10.068;2022-09-01T05:11:31;2.63;;;1.85;;
58360;SDS011;44164;44.954;10.068;2022-09-01T05:14:05;4.10;;;2.03;;
58360;SDS011;44164;44.954;10.068;2022-09-01T05:16:33;4.05;;;2.40;;
58360;SDS011;44164;44.954;10.068;2022-09-01T05:19:01;2.85;;;2.03;;
58360;SDS011;44164;44.954;10.068;2022-09-01T05:21:31;3.35;;;1.95;;
58360;SDS011;44164;44.954;10.068;2022-09-01T05:23:59;2.42;;;1.58;;
58360;SDS011;44164;44.954;10.068;2022-09-01T05:26:28;3.28;;;2.00;;
58360;SDS011;44164;44.954;10.068;2022-09-01T05:29:00;2.58;;;1.90;;
58360;SDS011;44164;44.954;10.068;2022-09-01T05:31:29;2.88;;;1.75;;
58360;SDS011;44164;44.954;10.068;2022-09-01T05:34:02;3.20;;;2.00;;
58360;SDS011;44164;44.954;10.068;2022-09-01T05:36:29;3.97;;;1.85;;
58360;SDS011;44164;44.954;10.068;2022-09-01T05:38:59;2.60;;;1.58;;
58360;SDS011;44164;44.954;10.068;2022-09-01T05:41:26;9.27;;;3.03;;
58360;SDS011;44164;44.954;10.068;2022-09-01T05:43:53;7.88;;;4.93;;
58360;SDS011;44164;44.954;10.068;2022-09-01T05:46:21;7.22;;;5.63;;
58360;SDS011;44164;44.954;10.068;2022-09-01T05:48:49;16.25;;;8.02;;
58360;SDS011;44164;44.954;10.068;2022-09-01T05:51:17;14.18;;;7.20;;
58360;SDS011;44164;44.954;10.068;2022-09-01T05:53:50;10.30;;;9.23;;
58360;SDS011;44164;44.954;10.068;2022-09-01T05:56:17;12.15;;;8.15;;
58360;SDS011;44164;44.954;10.068;2022-09-01T05:58:45;11.95;;;8.48;;
58360;SDS011;44164;44.954;10.068;2022-09-01T06:01:17;11.73;;;7.68;;
58360;SDS011;44164;44.954;10.068;2022-09-01T06:03:48;14.13;;;8.80;;
58360;SDS011;44164;44.954;10.068;2022-09-01T06:06:23;12.35;;;8.77;;
58360;SDS011;44164;44.954;10.068;2022-09-01T06:08:53;11.18;;;8.30;;
58360;SDS011;44164;44.954;10.068;2022-09-01T06:11:25;15.50;;;8.90;;
58360;SDS011;44164;44.954;10.068;2022-09-01T06:13:52;12.68;;;8.48;;
58360;SDS011;44164;44.954;10.068;2022-09-01T06:16:22;13.98;;;9.02;;
58360;SDS011;44164;44.954;10.068;2022-09-01T06:18:50;11.55;;;8.95;;
58360;SDS011;44164;44.954;10.068;2022-09-01T06:21:22;13.18;;;10.13;;
58360;SDS011;44164;44.954;10.068;2022-09-01T06:23:49;13.20;;;8.88;;
58360;SDS011;44164;44.954;10.068;2022-09-01T06:26:24;12.05;;;9.32;;
58360;SDS011;44164;44.954;10.068;2022-09-01T06:28:56;15.68;;;10.13;;
58360;SDS011;44164;44.954;10.068;2022-09-01T06:31:25;12.98;;;11.63;;
58360;SDS011;44164;44.954;10.068;2022-09-01T06:34:01;15.23;;;11.00;;
58360;SDS011;44164;44.954;10.068;2022-09-01T06:36:28;11.82;;;10.68;;
58360;SDS011;44164;44.954;10.068;2022-09-01T06:38:57;17.70;;;11.75;;
58360;SDS011;44164;44.954;10.068;2022-09-01T06:41:26;15.20;;;12.88;;
58360;SDS011;44164;44.954;10.068;2022-09-01T06:43:54;12.30;;;10.85;;
58360;SDS011;44164;44.954;10.068;2022-09-01T06:46:20;14.38;;;12.88;;
58360;SDS011;44164;44.954;10.068;2022-09-01T06:48:48;14.80;;;12.43;;
58360;SDS011;44164;44.954;10.068;2022-09-01T06:51:16;13.65;;;12.27;;
58360;SDS011;44164;44.954;10.068;2022-09-01T06:53:50;13.68;;;12.15;;
58360;SDS011;44164;44.954;10.068;2022-09-01T06:56:22;16.20;;;12.98;;
58360;SDS011;44164;44.954;10.068;2022-09-01T06:58:50;13.45;;;12.13;;
58360;SDS011;44164;44.954;10.068;2022-09-01T07:01:19;14.73;;;13.18;;
58360;SDS011;44164;44.954;10.068;2022-09-01T07:03:48;20.38;;;14.82;;
58360;SDS011;44164;44.954;10.068;2022-09-01T07:06:24;17.67;;;13.73;;
58360;SDS011;44164;44.954;10.068;2022-09-01T07:09:14;14.98;;;13.02;;
58360;SDS011;44164;44.954;10.068;2022-09-01T07:11:43;15.05;;;13.48;;
58360;SDS011;44164;44.954;10.068;2022-09-01T07:14:10;17.43;;;14.80;;
58360;SDS011;44164;44.954;10.068;2022-09-01T07:16:36;17.52;;;12.05;;
58360;SDS011;44164;44.954;10.068;2022-09-01T07:19:07;20.85;;;13.55;;
58360;SDS011;44164;44.954;10.068;2022-09-01T07:21:47;20.63;;;12.55;;
58360;SDS011;44164;44.954;10.068;2022-09-01T07:27:05;16.27;;;14.57;;
58360;SDS011;44164;44.954;10.068;2022-09-01T07:29:34;16.20;;;14.38;;
58360;SDS011;44164;44.954;10.068;2022-09-01T07:32:00;15.38;;;13.88;;
58360;SDS011;44164;44.954;10.068;2022-09-01T07:34:27;16.80;;;13.07;;
58360;SDS011;44164;44.954;10.068;2022-09-01T07:36:55;15.75;;;14.25;;
58360;SDS011;44164;44.954;10.068;2022-09-01T07:39:24;16.05;;;14.15;;
58360;SDS011;44164;44.954;10.068;2022-09-01T07:42:10;15.13;;;13.52;;
58360;SDS011;44164;44.954;10.068;2022-09-01T07:44:59;11.77;;;10.57;;
58360;SDS011;44164;44.954;10.068;2022-09-01T07:47:39;11.38;;;10.07;;
58360;SDS011;44164;44.954;10.068;2022-09-01T07:50:06;11.77;;;10.10;;
58360;SDS011;44164;44.954;10.068;2022-09-01T07:52:34;13.77;;;9.88;;
58360;SDS011;44164;44.954;10.068;2022-09-01T07:55:07;11.15;;;10.02;;
58360;SDS011;44164;44.954;10.068;2022-09-01T07:57:38;10.90;;;8.20;;
58360;SDS011;44164;44.954;10.068;2022-09-01T08:00:08;13.50;;;10.13;;
58360;SDS011;44164;44.954;10.068;2022-09-01T08:02:41;11.35;;;8.80;;
58360;SDS011;44164;44.954;10.068;2022-09-01T08:05:16;10.05;;;9.05;;
58360;SDS011;44164;44.954;10.068;2022-09-01T08:07:45;9.63;;;8.73;;
58360;SDS011;44164;44.954;10.068;2022-09-01T08:12:43;8.65;;;7.30;;
58360;SDS011;44164;44.954;10.068;2022-09-01T08:15:10;12.98;;;8.57;;
58360;SDS011;44164;44.954;10.068;2022-09-01T08:17:38;10.07;;;7.87;;
58360;SDS011;44164;44.954;10.068;2022-09-01T08:20:08;9.05;;;7.40;;
58360;SDS011;44164;44.954;10.068;2022-09-01T08:23:05;10.82;;;9.45;;
58360;SDS011;44164;44.954;10.068;2022-09-01T08:25:34;12.00;;;8.77;;
58360;SDS011;44164;44.954;10.068;2022-09-01T08:28:01;13.68;;;7.65;;
58360;SDS011;44164;44.954;10.068;2022-09-01T08:30:28;10.70;;;7.57;;
58360;SDS011;44164;44.954;10.068;2022-09-01T08:32:57;9.63;;;7.03;;
58360;SDS011;44164;44.954;10.068;2022-09-01T08:35:25;7.70;;;6.38;;
58360;SDS011;44164;44.954;10.068;2022-09-01T08:37:55;8.60;;;7.80;;
58360;SDS011;44164;44.954;10.068;2022-09-01T08:40:24;7.22;;;6.10;;
58360;SDS011;44164;44.954;10.068;2022-09-01T08:43:08;7.43;;;5.85;;
58360;SDS011;44164;44.954;10.068;2022-09-01T08:45:47;10.18;;;8.30;;
58360;SDS011;44164;44.954;10.068;2022-09-01T08:54:05;12.65;;;6.05;;
58360;SDS011;44164;44.954;10.068;2022-09-01T08:56:32;8.88;;;7.07;;
58360;SDS011;44164;44.954;10.068;2022-09-01T08:59:01;8.57;;;6.35;;
58360;SDS011;44164;44.954;10.068;2022-09-01T09:04:20;8.32;;;7.53;;
58360;SDS011;44164;44.954;10.068;2022-09-01T09:07:06;8.18;;;6.05;;
58360;SDS011;44164;44.954;10.068;2022-09-01T09:09:40;6.75;;;6.05;;
58360;SDS011;44164;44.954;10.068;2022-09-01T09:15:00;7.40;;;5.13;;
58360;SDS011;44164;44.954;10.068;2022-09-01T09:17:35;5.00;;;3.70;;
58360;SDS011;44164;44.954;10.068;2022-09-01T09:20:05;7.30;;;4.35;;
58360;SDS011;44164;44.954;10.068;2022-09-01T09:22:31;6.80;;;4.22;;
58360;SDS011;44164;44.954;10.068;2022-09-01T09:25:03;4.95;;;3.25;;
58360;SDS011;44164;44.954;10.068;2022-09-01T09:27:35;3.95;;;3.40;;
58360;SDS011;44164;44.954;10.068;2022-09-01T09:30:05;4.68;;;3.05;;
58360;SDS011;44164;44.954;10.068;2022-09-01T09:32:49;4.82;;;3.17;;
58360;SDS011;44164;44.954;10.068;2022-09-01T09:37:52;4.22;;;2.40;;
58360;SDS011;44164;44.954;10.068;2022-09-01T09:40:27;3.77;;;2.60;;
58360;SDS011;44164;44.954;10.068;2022-09-01T09:45:24;6.03;;;2.95;;
58360;SDS011;44164;44.954;10.068;2022-09-01T09:48:03;4.78;;;2.50;;
58360;SDS011;44164;44.954;10.068;2022-09-01T09:50:51;5.10;;;3.00;;
58360;SDS011;44164;44.954;10.068;2022-09-01T09:56:03;3.47;;;2.65;;
58360;SDS011;44164;44.954;10.068;2022-09-01T09:58:35;3.55;;;2.63;;
58360;SDS011;44164;44.954;10.068;2022-09-01T10:01:07;3.22;;;2.10;;
58360;SDS011;44164;44.954;10.068;2022-09-01T10:03:45;4.18;;;2.50;;
58360;SDS011;44164;44.954;10.068;2022-09-01T10:08:55;4.18;;;3.25;;
58360;SDS011;44164;44.954;10.068;2022-09-01T10:14:42;3.55;;;2.35;;
58360;SDS011;44164;44.954;10.068;2022-09-01T10:17:05;5.35;;;3.00;;
58360;SDS011;44164;44.954;10.068;2022-09-01T10:19:58;3.28;;;2.53;;
58360;SDS011;44164;44.954;10.068;2022-09-01T10:22:31;4.68;;;2.88;;
58360;SDS011;44164;44.954;10.068;2022-09-01T10:24:59;3.92;;;2.55;;
58360;SDS011;44164;44.954;10.068;2022-09-01T10:27:28;3.15;;;2.10;;
58360;SDS011;44164;44.954;10.068;2022-09-01T10:32:31;3.50;;;2.00;;
58360;SDS011;44164;44.954;10.068;2022-09-01T10:34:59;4.45;;;2.30;;
58360;SDS011;44164;44.954;10.068;2022-09-01T10:37:27;3.90;;;2.03;;
58360;SDS011;44164;44.954;10.068;2022-09-01T10:40:10;3.65;;;1.40;;
58360;SDS011;44164;44.954;10.068;2022-09-01T10:42:36;3.55;;;1.73;;
58360;SDS011;44164;44.954;10.068;2022-09-01T10:45:03;3.90;;;1.10;;
58360;SDS011;44164;44.954;10.068;2022-09-01T10:47:30;1.95;;;1.00;;
58360;SDS011;44164;44.954;10.068;2022-09-01T10:55:18;2.22;;;1.08;;
58360;SDS011;44164;44.954;10.068;2022-09-01T11:13:35;2.60;;;1.08;;
58360;SDS011;44164;44.954;10.068;2022-09-01T11:18:55;3.05;;;1.20;;
58360;SDS011;44164;44.954;10.068;2022-09-01T11:21:40;2.08;;;1.50;;
58360;SDS011;44164;44.954;10.068;2022-09-01T11:27:07;3.20;;;1.55;;
58360;SDS011;44164;44.954;10.068;2022-09-01T11:29:54;2.60;;;1.30;;
58360;SDS011;44164;44.954;10.068;2022-09-01T11:32:23;2.37;;;1.20;;
58360;SDS011;44164;44.954;10.068;2022-09-01T11:34:52;1.95;;;1.33;;
58360;SDS011;44164;44.954;10.068;2022-09-01T11:37:21;2.60;;;1.35;;
58360;SDS011;44164;44.954;10.068;2022-09-01T11:39:53;4.20;;;1.50;;
58360;SDS011;44164;44.954;10.068;2022-09-01T11:42:23;2.10;;;1.17;;
58360;SDS011;44164;44.954;10.068;2022-09-01T11:47:46;4.18;;;1.52;;
58360;SDS011;44164;44.954;10.068;2022-09-01T11:58:01;3.65;;;1.58;;
58360;SDS011;44164;44.954;10.068;2022-09-01T12:00:31;1.95;;;1.30;;
58360;SDS011;44164;44.954;10.068;2022-09-01T12:03:04;2.53;;;1.48;;
58360;SDS011;44164;44.954;10.068;2022-09-01T12:05:35;2.65;;;1.55;;
58360;SDS011;44164;44.954;10.068;2022-09-01T12:08:13;2.72;;;1.65;;
58360;SDS011;44164;44.954;10.068;2022-09-01T12:10:40;5.10;;;1.77;;
58360;SDS011;44164;44.954;10.068;2022-09-01T12:15:51;2.08;;;1.35;;
58360;SDS011;44164;44.954;10.068;2022-09-01T12:18:35;2.38;;;1.50;;
58360;SDS011;44164;44.954;10.068;2022-09-01T12:21:04;3.15;;;1.60;;
58360;SDS011;44164;44.954;10.068;2022-09-01T12:23:34;3.08;;;1.77;;
58360;SDS011;44164;44.954;10.068;2022-09-01T12:26:11;5.43;;;1.70;;
58360;SDS011;44164;44.954;10.068;2022-09-01T12:28:40;3.65;;;1.77;;
58360;SDS011;44164;44.954;10.068;2022-09-01T12:31:11;3.33;;;1.67;;
58360;SDS011;44164;44.954;10.068;2022-09-01T12:33:40;2.97;;;1.45;;
58360;SDS011;44164;44.954;10.068;2022-09-01T12:38:48;3.70;;;1.30;;
58360;SDS011;44164;44.954;10.068;2022-09-01T12:41:22;2.13;;;1.40;;
58360;SDS011;44164;44.954;10.068;2022-09-01T12:44:24;3.97;;;1.60;;
58360;SDS011;44164;44.954;10.068;2022-09-01T12:47:00;2.67;;;1.60;;
58360;SDS011;44164;44.954;10.068;2022-09-01T12:49:39;4.10;;;1.60;;
58360;SDS011;44164;44.954;10.068;2022-09-01T12:54:36;1.60;;;1.10;;
58360;SDS011;44164;44.954;10.068;2022-09-01T12:57:02;2.78;;;1.40;;
58360;SDS011;44164;44.954;10.068;2022-09-01T12:59:28;3.20;;;1.25;;
58360;SDS011;44164;44.954;10.068;2022-09-01T13:01:54;1.98;;;1.33;;
58360;SDS011;44164;44.954;10.068;2022-09-01T13:06:53;5.18;;;1.25;;
58360;SDS011;44164;44.954;10.068;2022-09-01T13:09:24;3.63;;;1.13;;
58360;SDS011;44164;44.954;10.068;2022-09-01T13:11:50;2.65;;;1.65;;
58360;SDS011;44164;44.954;10.068;2022-09-01T13:14:17;2.75;;;1.35;;
58360;SDS011;44164;44.954;10.068;2022-09-01T13:16:43;3.00;;;1.55;;
58360;SDS011;44164;44.954;10.068;2022-09-01T13:19:10;7.15;;;1.88;;
58360;SDS011;44164;44.954;10.068;2022-09-01T13:21:36;2.47;;;1.20;;
58360;SDS011;44164;44.954;10.068;2022-09-01T13:24:03;3.45;;;1.42;;
58360;SDS011;44164;44.954;10.068;2022-09-01T13:26:31;4.82;;;1.45;;
58360;SDS011;44164;44.954;10.068;2022-09-01T13:28:57;2.40;;;1.02;;
58360;SDS011;44164;44.954;10.068;2022-09-01T13:31:24;2.03;;;1.23;;
58360;SDS011;44164;44.954;10.068;2022-09-01T13:33:50;3.47;;;1.35;;
58360;SDS011;44164;44.954;10.068;2022-09-01T13:36:17;4.70;;;1.05;;
58360;SDS011;44164;44.954;10.068;2022-09-01T13:38:44;2.65;;;1.05;;
58360;SDS011;44164;44.954;10.068;2022-09-01T13:41:10;3.17;;;1.20;;
58360;SDS011;44164;44.954;10.068;2022-09-01T13:43:36;2.78;;;1.27;;
58360;SDS011;44164;44.954;10.068;2022-09-01T13:46:03;2.40;;;1.30;;
58360;SDS011;44164;44.954;10.068;2022-09-01T13:48:29;2.40;;;1.10;;
58360;SDS011;44164;44.954;10.068;2022-09-01T13:50:55;2.97;;;1.10;;
58360;SDS011;44164;44.954;10.068;2022-09-01T13:53:22;4.20;;;1.45;;
58360;SDS011;44164;44.954;10.068;2022-09-01T13:55:48;2.15;;;1.25;;
58360;SDS011;44164;44.954;10.068;2022-09-01T13:58:14;2.33;;;1.27;;
58360;SDS011;44164;44.954;10.068;2022-09-01T14:00:42;2.38;;;1.15;;
58360;SDS011;44164;44.954;10.068;2022-09-01T14:03:12;3.17;;;1.30;;
58360;SDS011;44164;44.954;10.068;2022-09-01T14:05:45;3.33;;;1.27;;
58360;SDS011;44164;44.954;10.068;2022-09-01T14:08:12;5.68;;;1.00;;
58360;SDS011;44164;44.954;10.068;2022-09-01T14:10:45;3.85;;;1.42;;
58360;SDS011;44164;44.954;10.068;2022-09-01T14:13:13;4.05;;;1.00;;
58360;SDS011;44164;44.954;10.068;2022-09-01T14:15:40;7.15;;;1.30;;
58360;SDS011;44164;44.954;10.068;2022-09-01T14:18:06;5.15;;;0.90;;
58360;SDS011;44164;44.954;10.068;2022-09-01T14:20:33;2.72;;;0.80;;
58360;SDS011;44164;44.954;10.068;2022-09-01T14:23:05;1.42;;;0.60;;
58360;SDS011;44164;44.954;10.068;2022-09-01T14:25:32;5.93;;;1.02;;
58360;SDS011;44164;44.954;10.068;2022-09-01T14:27:58;2.97;;;0.95;;
58360;SDS011;44164;44.954;10.068;2022-09-01T14:30:27;3.70;;;1.13;;
58360;SDS011;44164;44.954;10.068;2022-09-01T14:32:54;2.15;;;1.00;;
58360;SDS011;44164;44.954;10.068;2022-09-01T14:35:20;5.10;;;1.23;;
58360;SDS011;44164;44.954;10.068;2022-09-01T14:37:50;2.17;;;1.08;;
58360;SDS011;44164;44.954;10.068;2022-09-01T14:40:16;3.13;;;1.10;;
58360;SDS011;44164;44.954;10.068;2022-09-01T14:45:23;2.03;;;0.80;;
58360;SDS011;44164;44.954;10.068;2022-09-01T14:47:52;3.05;;;0.90;;
58360;SDS011;44164;44.954;10.068;2022-09-01T14:50:19;2.35;;;0.90;;
58360;SDS011;44164;44.954;10.068;2022-09-01T14:52:48;2.20;;;0.85;;
58360;SDS011;44164;44.954;10.068;2022-09-01T14:55:15;2.20;;;0.95;;
58360;SDS011;44164;44.954;10.068;2022-09-01T14:57:41;2.33;;;1.08;;
58360;SDS011;44164;44.954;10.068;2022-09-01T15:00:08;2.88;;;1.13;;
58360;SDS011;44164;44.954;10.068;2022-09-01T15:02:37;3.67;;;0.98;;
58360;SDS011;44164;44.954;10.068;2022-09-01T15:05:04;2.10;;;1.00;;
58360;SDS011;44164;44.954;10.068;2022-09-01T15:07:31;1.57;;;0.80;;
58360;SDS011;44164;44.954;10.068;2022-09-01T15:09:57;2.03;;;1.00;;
58360;SDS011;44164;44.954;10.068;2022-09-01T15:12:23;2.03;;;0.90;;
58360;SDS011;44164;44.954;10.068;2022-09-01T15:14:50;2.50;;;0.90;;
58360;SDS011;44164;44.954;10.068;2022-09-01T15:17:16;1.20;;;0.70;;
58360;SDS011;44164;44.954;10.068;2022-09-01T15:19:42;3.20;;;1.00;;
58360;SDS011;44164;44.954;10.068;2022-09-01T15:22:09;1.38;;;0.70;;
58360;SDS011;44164;44.954;10.068;2022-09-01T15:24:37;3.80;;;0.80;;
58360;SDS011;44164;44.954;10.068;2022-09-01T15:27:03;2.30;;;1.00;;
58360;SDS011;44164;44.954;10.068;2022-09-01T15:31:59;2.38;;;1.00;;
58360;SDS011;44164;44.954;10.068;2022-09-01T15:34:28;2.88;;;0.90;;
58360;SDS011;44164;44.954;10.068;2022-09-01T15:36:54;1.85;;;0.90;;
58360;SDS011;44164;44.954;10.068;2022-09-01T15:39:21;2.10;;;0.93;;
58360;SDS011;44164;44.954;10.068;2022-09-01T15:41:47;1.70;;;1.02;;
58360;SDS011;44164;44.954;10.068;2022-09-01T15:44:13;1.70;;;0.77;;
58360;SDS011;44164;44.954;10.068;2022-09-01T15:46:39;4.70;;;1.23;;
58360;SDS011;44164;44.954;10.068;2022-09-01T15:49:08;1.35;;;0.80;;
58360;SDS011;44164;44.954;10.068;2022-09-01T15:51:36;1.70;;;1.08;;
58360;SDS011;44164;44.954;10.068;2022-09-01T15:54:11;2.28;;;1.02;;
58360;SDS011;44164;44.954;10.068;2022-09-01T15:59:08;1.80;;;0.85;;
58360;SDS011;44164;44.954;10.068;2022-09-01T16:01:35;1.63;;;0.70;;
58360;SDS011;44164;44.954;10.068;2022-09-01T16:04:04;1.08;;;0.63;;
58360;SDS011;44164;44.954;10.068;2022-09-01T16:06:32;1.10;;;0.70;;
58360;SDS011;44164;44.954;10.068;2022-09-01T16:08:58;2.78;;;1.10;;
58360;SDS011;44164;44.954;10.068;2022-09-01T16:11:25;1.55;;;0.70;;
58360;SDS011;44164;44.954;10.068;2022-09-01T16:13:51;1.83;;;0.90;;
58360;SDS011;44164;44.954;10.068;2022-09-01T16:19:40;1.23;;;0.80;;
58360;SDS011;44164;44.954;10.068;2022-09-01T16:22:51;1.10;;;0.50;;
58360;SDS011;44164;44.954;10.068;2022-09-01T16:25:03;1.17;;;0.80;;
58360;SDS011;44164;44.954;10.068;2022-09-01T16:27:41;1.33;;;0.80;;
58360;SDS011;44164;44.954;10.068;2022-09-01T16:30:10;1.85;;;0.80;;
58360;SDS011;44164;44.954;10.068;2022-09-01T16:32:42;1.55;;;0.80;;